Time;durP1;ratioP1;P1;durP2;ratioP2;P2;SDS_P1;SDS_P2;PMS_P1;PMS_P2;Temp;Humidity;BMP_temperature;BMP_pressure;BME280_temperature;BME280_humidity;BME280_pressure;Samples;Min_cycle;Max_cycle;Signal;HPM_P1;HPM_P2
2022/04/22 00:02:20;;;;;;;7.57;5.28;;;;;;;;;;4936680;29;20019;-68
2022/04/22 00:04:46;;;;;;;7.05;4.95;;;;;;;;;;4936602;29;20553;-69
2022/04/22 00:07:12;;;;;;;10.10;5.57;;;;;;;;;;4936549;29;20122;-73
2022/04/22 00:09:38;;;;;;;7.60;5.30;;;;;;;;;;4936744;29;20110;-73
2022/04/22 00:12:05;;;;;;;9.45;5.70;;;;;;;;;;4930997;29;20578;-72
2022/04/22 00:14:31;;;;;;;10.43;5.43;;;;;;;;;;4934687;29;20042;-73
2022/04/22 00:16:57;;;;;;;10.48;6.43;;;;;;;;;;4935066;29;20379;-70
2022/04/22 00:19:23;;;;;;;9.23;5.38;;;;;;;;;;4935234;29;20040;-70
2022/04/22 00:21:50;;;;;;;11.88;5.60;;;;;;;;;;4935184;28;20067;-73
2022/04/22 00:24:16;;;;;;;9.82;5.72;;;;;;;;;;4935253;29;20115;-71
2022/04/22 00:26:43;;;;;;;8.00;4.28;;;;;;;;;;4934991;29;20464;-72
2022/04/22 00:29:11;;;;;;;6.45;4.25;;;;;;;;;;4934637;29;20487;-72
2022/04/22 00:31:38;;;;;;;4.95;4.10;;;;;;;;;;4935035;29;20028;-73
2022/04/22 00:34:04;;;;;;;8.07;4.90;;;;;;;;;;4935144;29;20402;-72
2022/04/22 00:36:31;;;;;;;7.88;4.75;;;;;;;;;;4935191;29;20383;-72
2022/04/22 00:38:58;;;;;;;6.70;4.03;;;;;;;;;;4936392;29;20110;-72
2022/04/22 00:41:26;;;;;;;6.45;4.00;;;;;;;;;;4952557;29;20031;-73
2022/04/22 00:43:55;;;;;;;5.63;4.30;;;;;;;;;;4949029;29;20027;-73
2022/04/22 00:46:21;;;;;;;4.22;3.50;;;;;;;;;;4934677;29;20027;-74
2022/04/22 00:48:47;;;;;;;6.78;4.32;;;;;;;;;;4934772;29;20086;-72
2022/04/22 00:51:13;;;;;;;5.10;3.85;;;;;;;;;;4934815;29;20491;-73
2022/04/22 00:53:41;;;;;;;8.68;4.40;;;;;;;;;;4934971;29;20043;-73
2022/04/22 00:56:12;;;;;;;5.78;4.07;;;;;;;;;;4934902;29;20032;-73
2022/04/22 00:58:49;;;;;;;6.97;4.35;;;;;;;;;;4934736;29;20039;-73
2022/04/22 01:01:16;;;;;;;5.68;4.10;;;;;;;;;;4934707;29;20032;-72
2022/04/22 01:11:59;;;;;;;6.88;3.58;;;;;;;;;;4934827;29;20082;-72
2022/04/22 01:14:25;;;;;;;7.72;4.55;;;;;;;;;;4934954;29;20024;-73
2022/04/22 01:16:51;;;;;;;5.38;4.30;;;;;;;;;;4934756;29;20530;-71
2022/04/22 01:19:17;;;;;;;5.43;4.43;;;;;;;;;;4949394;28;20075;-71
2022/04/22 01:21:43;;;;;;;6.60;4.50;;;;;;;;;;4934881;29;20090;-74
2022/04/22 01:24:11;;;;;;;6.78;4.50;;;;;;;;;;4935060;29;20028;-72
2022/04/22 01:26:41;;;;;;;11.52;5.07;;;;;;;;;;4935251;29;20091;-72
2022/04/22 01:29:09;;;;;;;9.27;4.78;;;;;;;;;;4935161;29;20046;-74
2022/04/22 01:31:35;;;;;;;6.88;4.47;;;;;;;;;;4934918;29;20046;-71
2022/04/22 01:34:01;;;;;;;8.13;5.07;;;;;;;;;;4934578;29;20047;-73
2022/04/22 01:36:28;;;;;;;8.57;5.93;;;;;;;;;;4934632;29;20027;-73
2022/04/22 01:38:55;;;;;;;7.95;5.40;;;;;;;;;;4934562;29;20051;-73
2022/04/22 01:41:21;;;;;;;8.68;5.57;;;;;;;;;;4934723;29;20027;-72
2022/04/22 01:43:47;;;;;;;7.85;5.47;;;;;;;;;;4936840;28;20372;-72
2022/04/22 01:46:15;;;;;;;7.13;5.45;;;;;;;;;;4938634;29;20039;-73
2022/04/22 01:48:41;;;;;;;9.27;5.28;;;;;;;;;;4937612;29;20028;-72
2022/04/22 01:51:07;;;;;;;9.70;5.35;;;;;;;;;;4935071;29;20480;-72
2022/04/22 01:53:33;;;;;;;8.57;5.78;;;;;;;;;;4937795;29;20028;-72
2022/04/22 01:55:59;;;;;;;8.27;5.45;;;;;;;;;;4938206;29;20036;-72
2022/04/22 01:58:25;;;;;;;7.75;5.13;;;;;;;;;;4938167;29;20054;-72
2022/04/22 02:00:50;;;;;;;8.07;5.25;;;;;;;;;;4939692;29;20114;-72
2022/04/22 02:03:16;;;;;;;7.82;5.22;;;;;;;;;;4937124;29;20047;-74
2022/04/22 02:05:42;;;;;;;8.15;5.30;;;;;;;;;;4937919;29;20059;-73
2022/04/22 02:08:09;;;;;;;7.13;5.13;;;;;;;;;;4937512;29;20447;-71
2022/04/22 02:10:35;;;;;;;9.15;5.60;;;;;;;;;;4937747;29;20035;-73
2022/04/22 02:13:01;;;;;;;6.95;5.28;;;;;;;;;;4938075;29;20038;-73
2022/04/22 02:15:27;;;;;;;7.72;5.18;;;;;;;;;;4936923;29;20036;-74
2022/04/22 02:17:53;;;;;;;7.03;4.88;;;;;;;;;;4937393;29;20028;-71
2022/04/22 02:20:19;;;;;;;9.55;5.32;;;;;;;;;;4936298;29;20040;-68
2022/04/22 02:22:45;;;;;;;8.32;5.13;;;;;;;;;;4937835;29;20043;-73
2022/04/22 02:25:12;;;;;;;7.70;5.57;;;;;;;;;;4937829;29;20028;-72
2022/04/22 02:30:23;;;;;;;11.93;5.75;;;;;;;;;;4937552;29;20055;-74
2022/04/22 02:32:50;;;;;;;7.88;5.45;;;;;;;;;;4937490;29;20078;-68
2022/04/22 02:35:20;;;;;;;8.73;5.22;;;;;;;;;;4936986;29;20032;-73
2022/04/22 02:37:47;;;;;;;8.13;5.60;;;;;;;;;;4918410;29;20047;-72
2022/04/22 02:45:46;;;;;;;9.23;5.13;;;;;;;;;;4918491;29;20036;-70
2022/04/22 02:48:12;;;;;;;8.63;4.90;;;;;;;;;;4918038;29;20024;-74
2022/04/22 02:50:38;;;;;;;8.32;5.70;;;;;;;;;;4932768;29;20047;-72
2022/04/22 02:53:04;;;;;;;8.13;5.45;;;;;;;;;;4918574;29;20036;-74
2022/04/22 02:55:30;;;;;;;8.30;5.53;;;;;;;;;;4917040;29;20040;-73
2022/04/22 02:57:56;;;;;;;6.45;5.05;;;;;;;;;;4918387;29;20043;-73
2022/04/22 03:00:23;;;;;;;7.40;5.40;;;;;;;;;;4936918;29;20505;-73
2022/04/22 03:02:50;;;;;;;7.38;5.20;;;;;;;;;;4937162;29;20422;-73
2022/04/22 03:05:16;;;;;;;7.38;5.43;;;;;;;;;;4937079;29;20039;-73
2022/04/22 03:07:43;;;;;;;9.88;5.32;;;;;;;;;;4936379;29;20036;-73
2022/04/22 03:10:10;;;;;;;9.00;5.35;;;;;;;;;;4936566;28;20068;-71
2022/04/22 03:12:36;;;;;;;10.48;6.10;;;;;;;;;;4917959;29;20027;-72
2022/04/22 03:15:03;;;;;;;8.65;5.45;;;;;;;;;;4917926;29;20040;-74
2022/04/22 03:17:30;;;;;;;13.70;5.72;;;;;;;;;;4936573;29;20042;-74
2022/04/22 03:19:56;;;;;;;13.93;5.45;;;;;;;;;;4936644;29;20083;-70
2022/04/22 03:22:23;;;;;;;8.25;5.88;;;;;;;;;;4936461;29;20463;-72
2022/04/22 03:24:50;;;;;;;7.72;5.60;;;;;;;;;;4936716;29;20086;-73
2022/04/22 03:27:16;;;;;;;12.52;5.80;;;;;;;;;;4936548;29;20106;-72
2022/04/22 03:29:43;;;;;;;13.18;6.43;;;;;;;;;;4936540;29;20051;-72
2022/04/22 03:32:12;;;;;;;12.75;6.88;;;;;;;;;;4936267;29;20035;-72
2022/04/22 03:34:39;;;;;;;12.88;7.18;;;;;;;;;;4936150;29;20050;-73
2022/04/22 03:37:06;;;;;;;9.90;5.82;;;;;;;;;;4936049;29;20023;-73
2022/04/22 03:39:33;;;;;;;9.80;5.88;;;;;;;;;;4936025;29;20479;-73
2022/04/22 03:41:59;;;;;;;10.02;5.80;;;;;;;;;;4936205;29;20020;-74
2022/04/22 03:44:26;;;;;;;8.93;6.15;;;;;;;;;;4935646;29;20106;-72
2022/04/22 03:46:53;;;;;;;8.20;6.10;;;;;;;;;;4936376;29;20028;-73
2022/04/22 03:49:19;;;;;;;15.40;7.03;;;;;;;;;;4936421;29;20042;-71
2022/04/22 03:51:44;;;;;;;11.65;6.75;;;;;;;;;;4935916;29;20043;-73
2022/04/22 03:54:10;;;;;;;10.88;6.75;;;;;;;;;;4935858;29;20040;-73
2022/04/22 03:59:21;;;;;;;14.25;8.25;;;;;;;;;;4935902;29;20061;-72
2022/04/22 04:01:46;;;;;;;13.38;8.77;;;;;;;;;;4935563;29;20024;-73
2022/04/22 04:04:12;;;;;;;14.60;9.63;;;;;;;;;;4935431;29;20036;-72
2022/04/22 04:06:38;;;;;;;14.35;9.18;;;;;;;;;;4935017;29;20471;-70
2022/04/22 04:17:18;;;;;;;18.33;9.80;;;;;;;;;;4934467;29;20046;-71
2022/04/22 04:25:13;;;;;;;19.00;9.80;;;;;;;;;;4934899;29;20349;-75
2022/04/22 04:27:39;;;;;;;13.63;9.45;;;;;;;;;;4934631;29;20038;-76
2022/04/22 04:30:07;;;;;;;16.52;9.98;;;;;;;;;;4934946;29;20171;-72
2022/04/22 04:32:32;;;;;;;14.75;8.75;;;;;;;;;;4935369;29;20074;-73
2022/04/22 04:34:58;;;;;;;13.55;9.13;;;;;;;;;;4934872;29;20043;-77
2022/04/22 04:37:24;;;;;;;11.02;8.13;;;;;;;;;;4935544;29;20026;-73
2022/04/22 04:39:50;;;;;;;16.80;11.02;;;;;;;;;;4935769;29;20078;-76
2022/04/22 04:42:16;;;;;;;15.55;11.80;;;;;;;;;;4934582;29;20031;-72
2022/04/22 04:44:42;;;;;;;14.52;10.40;;;;;;;;;;4932219;29;20047;-75
2022/04/22 04:47:10;;;;;;;13.57;10.32;;;;;;;;;;4950147;29;20023;-76
2022/04/22 04:49:36;;;;;;;12.80;8.75;;;;;;;;;;4954118;28;20039;-76
2022/04/22 04:52:02;;;;;;;14.38;9.98;;;;;;;;;;4952272;29;20545;-75
2022/04/22 04:54:28;;;;;;;17.42;10.07;;;;;;;;;;4934008;29;20090;-71
2022/04/22 04:56:54;;;;;;;13.93;8.82;;;;;;;;;;4931744;29;20079;-73
2022/04/22 04:59:22;;;;;;;12.30;9.07;;;;;;;;;;4933808;29;20419;-76
2022/04/22 05:01:48;;;;;;;11.23;8.77;;;;;;;;;;4931547;29;20071;-76
2022/04/22 05:04:14;;;;;;;12.75;9.10;;;;;;;;;;4933441;29;20027;-75
2022/04/22 05:06:40;;;;;;;14.20;8.70;;;;;;;;;;4934617;29;20162;-75
2022/04/22 05:09:06;;;;;;;19.80;9.88;;;;;;;;;;4932055;29;20109;-75
2022/04/22 05:11:32;;;;;;;12.88;9.50;;;;;;;;;;4932948;29;20023;-71
2022/04/22 05:13:58;;;;;;;18.27;9.93;;;;;;;;;;4933576;29;20054;-75
2022/04/22 05:16:24;;;;;;;18.13;9.95;;;;;;;;;;4933288;29;20495;-76
2022/04/22 05:18:50;;;;;;;14.38;9.73;;;;;;;;;;4932515;29;20048;-74
2022/04/22 05:21:16;;;;;;;11.68;8.80;;;;;;;;;;4933299;29;20019;-71
2022/04/22 05:23:41;;;;;;;12.07;8.90;;;;;;;;;;4933403;29;20427;-73
2022/04/22 05:26:07;;;;;;;11.85;9.23;;;;;;;;;;4935184;29;20039;-75
2022/04/22 05:28:33;;;;;;;10.65;7.80;;;;;;;;;;4935049;29;20032;-75
2022/04/22 05:33:43;;;;;;;10.93;8.88;;;;;;;;;;4935150;29;20028;-74
2022/04/22 05:36:09;;;;;;;12.23;8.50;;;;;;;;;;4935251;29;20047;-76
2022/04/22 05:38:35;;;;;;;12.25;8.80;;;;;;;;;;4934894;29;20032;-76
2022/04/22 05:41:01;;;;;;;13.32;8.32;;;;;;;;;;4949902;29;20132;-74
2022/04/22 05:43:28;;;;;;;11.93;8.50;;;;;;;;;;4935040;29;20091;-70
2022/04/22 05:45:54;;;;;;;13.88;8.55;;;;;;;;;;4934924;29;20023;-70
2022/04/22 05:48:20;;;;;;;17.00;9.35;;;;;;;;;;4934271;29;20032;-73
2022/04/22 05:50:46;;;;;;;21.92;9.70;;;;;;;;;;4934838;29;20131;-76
2022/04/22 05:53:12;;;;;;;15.85;9.40;;;;;;;;;;4935122;29;20344;-77
2022/04/22 05:55:38;;;;;;;12.38;8.98;;;;;;;;;;4935223;29;20032;-75
2022/04/22 05:58:04;;;;;;;17.08;8.98;;;;;;;;;;4934914;29;20048;-73
2022/04/22 06:00:31;;;;;;;15.23;9.35;;;;;;;;;;4935127;29;20032;-76
2022/04/22 06:02:58;;;;;;;15.27;9.65;;;;;;;;;;4935039;29;20415;-76
2022/04/22 06:05:26;;;;;;;12.55;9.15;;;;;;;;;;4934999;29;20086;-76
2022/04/22 06:10:38;;;;;;;13.48;7.63;;;;;;;;;;4934802;29;20032;-74
2022/04/22 06:13:05;;;;;;;12.02;8.00;;;;;;;;;;4934823;29;20035;-77
2022/04/22 06:15:31;;;;;;;12.15;7.80;;;;;;;;;;4934798;29;20514;-76
2022/04/22 06:17:58;;;;;;;12.52;8.75;;;;;;;;;;4934943;29;20107;-76
2022/04/22 06:20:24;;;;;;;12.73;8.50;;;;;;;;;;4934697;29;20031;-78
2022/04/22 06:22:51;;;;;;;11.75;8.32;;;;;;;;;;4934494;29;20396;-77
2022/04/22 06:25:17;;;;;;;12.40;8.00;;;;;;;;;;4934220;29;20424;-75
2022/04/22 06:27:45;;;;;;;15.05;7.90;;;;;;;;;;4934415;29;20491;-76
2022/04/22 06:30:13;;;;;;;20.00;9.93;;;;;;;;;;4937203;29;20098;-80
2022/04/22 06:32:40;;;;;;;11.75;8.70;;;;;;;;;;4938152;29;20043;-78
2022/04/22 06:35:07;;;;;;;19.27;9.50;;;;;;;;;;4937924;29;20036;-71
2022/04/22 06:37:36;;;;;;;13.50;9.05;;;;;;;;;;4939187;29;20337;-69
2022/04/22 06:45:49;;;;;;;14.52;9.88;;;;;;;;;;4918846;29;20040;-68
2022/04/22 06:48:30;;;;;;;14.80;9.35;;;;;;;;;;4948446;29;20050;-69
2022/04/22 06:50:58;;;;;;;11.05;7.13;;;;;;;;;;4937652;29;20047;-77
2022/04/22 06:53:24;;;;;;;13.13;8.40;;;;;;;;;;4937737;29;20064;-72
2022/04/22 06:55:52;;;;;;;11.02;6.78;;;;;;;;;;4936474;29;20032;-68
2022/04/22 06:58:18;;;;;;;12.45;8.23;;;;;;;;;;4934769;29;20391;-70
2022/04/22 07:00:46;;;;;;;14.18;8.98;;;;;;;;;;4933068;29;20031;-71
2022/04/22 07:03:13;;;;;;;13.60;8.60;;;;;;;;;;4937720;29;20030;-69
2022/04/22 07:05:41;;;;;;;13.77;7.30;;;;;;;;;;4937414;29;20043;-68
2022/04/22 07:08:13;;;;;;;11.15;7.15;;;;;;;;;;4936475;29;20110;-71
2022/04/22 07:10:49;;;;;;;11.02;6.28;;;;;;;;;;4936821;29;20496;-68
2022/04/22 07:13:16;;;;;;;13.70;5.97;;;;;;;;;;4952019;28;20035;-70
2022/04/22 07:15:46;;;;;;;7.90;5.40;;;;;;;;;;4935737;29;20028;-68
2022/04/22 07:18:13;;;;;;;11.63;6.20;;;;;;;;;;4936239;29;20043;-76
2022/04/22 07:20:40;;;;;;;13.95;7.00;;;;;;;;;;4937809;29;20535;-68
2022/04/22 07:23:06;;;;;;;10.98;5.53;;;;;;;;;;4937919;29;20040;-68
2022/04/22 07:25:32;;;;;;;8.63;5.50;;;;;;;;;;4936961;29;20019;-69
2022/04/22 07:27:59;;;;;;;11.82;5.90;;;;;;;;;;4937039;29;20119;-69
2022/04/22 07:30:25;;;;;;;7.78;5.32;;;;;;;;;;4936610;29;20063;-70
2022/04/22 07:32:52;;;;;;;10.80;5.95;;;;;;;;;;4936597;29;20048;-68
2022/04/22 07:35:20;;;;;;;9.77;5.82;;;;;;;;;;4936351;29;20046;-68
2022/04/22 07:37:49;;;;;;;8.68;5.78;;;;;;;;;;4935638;29;20046;-76
2022/04/22 07:40:16;;;;;;;9.15;5.88;;;;;;;;;;4936045;29;20140;-72
2022/04/22 07:48:19;;;;;;;12.93;6.28;;;;;;;;;;4936700;29;20094;-68
2022/04/22 07:50:47;;;;;;;9.90;5.82;;;;;;;;;;4936482;29;20050;-71
2022/04/22 07:53:17;;;;;;;8.70;5.93;;;;;;;;;;4936588;29;20151;-69
2022/04/22 07:55:43;;;;;;;9.60;6.32;;;;;;;;;;4936284;29;20028;-72
2022/04/22 07:58:19;;;;;;;11.02;8.15;;;;;;;;;;4936705;29;20028;-78
2022/04/22 08:00:45;;;;;;;10.68;7.50;;;;;;;;;;4936590;29;20035;-78
2022/04/22 08:03:12;;;;;;;14.15;7.95;;;;;;;;;;4936329;29;20035;-80
2022/04/22 08:05:38;;;;;;;13.50;7.15;;;;;;;;;;4936524;29;20046;-75
2022/04/22 08:08:06;;;;;;;12.30;7.07;;;;;;;;;;4935737;29;20036;-76
2022/04/22 08:10:33;;;;;;;10.25;7.38;;;;;;;;;;4935970;29;20043;-77
2022/04/22 08:12:58;;;;;;;11.88;7.50;;;;;;;;;;4936079;29;20023;-74
2022/04/22 08:15:24;;;;;;;12.90;6.63;;;;;;;;;;4950716;29;20044;-70
2022/04/22 08:17:50;;;;;;;9.60;5.45;;;;;;;;;;4935747;29;20047;-71
2022/04/22 08:20:17;;;;;;;11.00;5.20;;;;;;;;;;4935655;29;20044;-73
2022/04/22 08:22:44;;;;;;;9.48;5.10;;;;;;;;;;4935552;29;20063;-71
2022/04/22 08:25:11;;;;;;;6.32;4.18;;;;;;;;;;4935582;29;20164;-70
2022/04/22 08:27:37;;;;;;;10.90;4.07;;;;;;;;;;4935735;29;20032;-74
2022/04/22 08:30:03;;;;;;;9.85;5.10;;;;;;;;;;4935784;29;20071;-71
2022/04/22 08:32:29;;;;;;;8.85;4.45;;;;;;;;;;4935709;29;20110;-70
2022/04/22 08:34:55;;;;;;;7.07;4.18;;;;;;;;;;4935086;29;20500;-70
2022/04/22 08:37:21;;;;;;;5.55;4.00;;;;;;;;;;4935385;29;20036;-71
2022/04/22 08:39:47;;;;;;;5.60;3.80;;;;;;;;;;4935178;29;20136;-68
2022/04/22 08:42:14;;;;;;;6.30;3.88;;;;;;;;;;4950145;28;20159;-71
2022/04/22 08:44:41;;;;;;;7.70;4.10;;;;;;;;;;4935622;29;20563;-76
2022/04/22 08:50:09;;;;;;;5.57;3.90;;;;;;;;;;4935609;29;20036;-74
2022/04/22 08:52:36;;;;;;;6.50;3.40;;;;;;;;;;4934562;29;20497;-72
2022/04/22 08:55:04;;;;;;;8.57;3.83;;;;;;;;;;4935282;29;20420;-71
2022/04/22 08:57:30;;;;;;;8.57;4.30;;;;;;;;;;4935409;29;20101;-70
2022/04/22 09:00:01;;;;;;;11.40;4.10;;;;;;;;;;4935265;29;20522;-72
2022/04/22 09:02:28;;;;;;;6.20;3.90;;;;;;;;;;4935312;29;20032;-69
2022/04/22 09:04:54;;;;;;;6.50;3.70;;;;;;;;;;4934498;29;20024;-76
2022/04/22 09:07:26;;;;;;;8.90;4.53;;;;;;;;;;4935494;29;20036;-72
2022/04/22 09:09:52;;;;;;;9.73;4.03;;;;;;;;;;4935049;29;20036;-76
2022/04/22 09:12:23;;;;;;;6.88;4.03;;;;;;;;;;4916816;29;20444;-74
2022/04/22 09:14:52;;;;;;;7.70;4.50;;;;;;;;;;4916229;29;20044;-70
2022/04/22 09:17:25;;;;;;;8.57;3.95;;;;;;;;;;4915986;29;20457;-72
2022/04/22 09:19:52;;;;;;;9.40;4.45;;;;;;;;;;4916088;29;20033;-72
2022/04/22 09:22:19;;;;;;;13.10;5.63;;;;;;;;;;4922245;29;20479;-71
2022/04/22 09:24:50;;;;;;;6.68;4.40;;;;;;;;;;4934806;29;20035;-73
2022/04/22 09:27:16;;;;;;;9.15;4.70;;;;;;;;;;4934618;29;20039;-71
2022/04/22 09:30:04;;;;;;;8.95;4.32;;;;;;;;;;4934820;29;20656;-73
2022/04/22 09:32:32;;;;;;;16.95;4.70;;;;;;;;;;4935397;29;20051;-71
2022/04/22 09:35:07;;;;;;;8.77;4.43;;;;;;;;;;4935587;29;20027;-72
2022/04/22 09:43:39;;;;;;;9.15;4.47;;;;;;;;;;4933542;29;20067;-71
2022/04/22 09:46:06;;;;;;;7.22;4.00;;;;;;;;;;4934440;29;20138;-73
2022/04/22 09:48:44;;;;;;;9.75;4.35;;;;;;;;;;4924658;29;20372;-68
2022/04/22 09:51:27;;;;;;;7.20;4.30;;;;;;;;;;4925863;29;20036;-76
2022/04/22 09:54:08;;;;;;;9.05;3.92;;;;;;;;;;4934725;29;20036;-74
2022/04/22 09:56:34;;;;;;;6.55;4.25;;;;;;;;;;4934169;29;20067;-75
2022/04/22 09:59:22;;;;;;;5.32;3.90;;;;;;;;;;4932888;29;20020;-73
2022/04/22 10:01:49;;;;;;;5.53;3.22;;;;;;;;;;4929701;29;20035;-75
2022/04/22 10:04:20;;;;;;;6.00;3.75;;;;;;;;;;4934130;29;20024;-75
2022/04/22 10:06:46;;;;;;;7.63;3.58;;;;;;;;;;4924955;29;20035;-75
2022/04/22 10:09:16;;;;;;;7.55;4.07;;;;;;;;;;4931376;29;20535;-77
2022/04/22 10:11:48;;;;;;;7.45;3.55;;;;;;;;;;4937204;29;20055;-76
2022/04/22 10:14:18;;;;;;;6.20;3.58;;;;;;;;;;4937556;29;20048;-73
2022/04/22 10:16:45;;;;;;;4.82;3.55;;;;;;;;;;4937975;29;20064;-75
2022/04/22 10:19:12;;;;;;;8.30;3.67;;;;;;;;;;4937717;29;20024;-74
2022/04/22 10:21:40;;;;;;;6.15;4.07;;;;;;;;;;4938169;29;20062;-69
2022/04/22 10:24:08;;;;;;;5.45;3.55;;;;;;;;;;4937765;29;20030;-73
2022/04/22 10:26:34;;;;;;;6.35;4.25;;;;;;;;;;4938009;29;20394;-70
2022/04/22 10:29:03;;;;;;;6.50;3.40;;;;;;;;;;4937987;29;20152;-74
2022/04/22 10:31:29;;;;;;;6.65;2.90;;;;;;;;;;4935907;29;20051;-74
2022/04/22 10:34:05;;;;;;;6.82;2.92;;;;;;;;;;4935925;28;20395;-72
2022/04/22 10:36:33;;;;;;;6.45;3.55;;;;;;;;;;4935724;29;20039;-75
2022/04/22 10:39:00;;;;;;;5.72;3.63;;;;;;;;;;4938087;29;20047;-73
2022/04/22 10:41:28;;;;;;;6.53;3.80;;;;;;;;;;4937165;29;20071;-73
2022/04/22 10:49:46;;;;;;;7.13;3.33;;;;;;;;;;4938233;29;20360;-74
2022/04/22 10:52:19;;;;;;;11.65;3.78;;;;;;;;;;4937580;29;20036;-75
2022/04/22 10:54:55;;;;;;;5.40;2.90;;;;;;;;;;4937895;29;20042;-73
2022/04/22 10:57:29;;;;;;;6.47;3.38;;;;;;;;;;4935619;29;20024;-72
2022/04/22 11:00:08;;;;;;;6.95;3.67;;;;;;;;;;4928232;29;20036;-72
2022/04/22 11:02:42;;;;;;;7.50;3.10;;;;;;;;;;4931145;29;20809;-74
2022/04/22 11:05:20;;;;;;;6.00;2.88;;;;;;;;;;4933778;29;20043;-74
2022/04/22 11:07:58;;;;;;;6.10;2.50;;;;;;;;;;4933643;29;20088;-73
2022/04/22 11:10:26;;;;;;;6.18;3.40;;;;;;;;;;4934216;29;20038;-70
2022/04/22 11:12:56;;;;;;;5.18;3.03;;;;;;;;;;4937903;29;20447;-72
2022/04/22 11:15:46;;;;;;;7.60;2.92;;;;;;;;;;4936165;29;20058;-72
2022/04/22 11:18:14;;;;;;;5.95;2.88;;;;;;;;;;4935322;29;20031;-72
2022/04/22 11:20:51;;;;;;;8.00;2.85;;;;;;;;;;4937035;29;20016;-73
2022/04/22 11:23:18;;;;;;;5.85;2.80;;;;;;;;;;4936954;29;20382;-74
2022/04/22 11:25:46;;;;;;;4.65;2.72;;;;;;;;;;4937726;29;20023;-75
2022/04/22 11:28:13;;;;;;;5.47;2.67;;;;;;;;;;4936175;29;20043;-70
2022/04/22 11:30:40;;;;;;;6.78;2.90;;;;;;;;;;4937662;29;20151;-72
2022/04/22 11:33:15;;;;;;;6.18;2.72;;;;;;;;;;4936381;29;20051;-71
2022/04/22 11:35:41;;;;;;;6.75;2.70;;;;;;;;;;4934918;29;20387;-69
2022/04/22 11:38:08;;;;;;;8.48;3.05;;;;;;;;;;4935444;29;20428;-71
2022/04/22 11:40:37;;;;;;;4.88;2.58;;;;;;;;;;4936762;29;20559;-73
2022/04/22 11:43:07;;;;;;;7.30;2.70;;;;;;;;;;4935716;29;20049;-70
2022/04/22 11:45:35;;;;;;;5.68;2.60;;;;;;;;;;4937278;29;20035;-68
2022/04/22 11:48:12;;;;;;;4.43;2.72;;;;;;;;;;4936818;29;20036;-71
2022/04/22 11:50:39;;;;;;;6.82;2.80;;;;;;;;;;4935941;29;20060;-71
2022/04/22 11:53:20;;;;;;;5.85;2.90;;;;;;;;;;4936557;29;20572;-75
2022/04/22 11:55:48;;;;;;;8.27;2.97;;;;;;;;;;4932533;28;20412;-75
2022/04/22 11:58:16;;;;;;;8.75;3.30;;;;;;;;;;4928450;29;20032;-74
2022/04/22 12:06:20;;;;;;;7.55;3.40;;;;;;;;;;4936298;29;20434;-73
2022/04/22 12:08:54;;;;;;;9.25;3.00;;;;;;;;;;4936147;29;20032;-74
2022/04/22 12:11:24;;;;;;;6.65;2.75;;;;;;;;;;4935634;29;20034;-76
2022/04/22 12:13:51;;;;;;;6.22;3.05;;;;;;;;;;4935927;29;20155;-72
2022/04/22 12:16:17;;;;;;;6.95;3.20;;;;;;;;;;4935365;29;20356;-74
2022/04/22 12:18:45;;;;;;;6.93;3.30;;;;;;;;;;4935755;29;20110;-67
2022/04/22 12:21:12;;;;;;;6.38;3.50;;;;;;;;;;4936054;29;20023;-73
2022/04/22 12:23:40;;;;;;;7.82;3.47;;;;;;;;;;4934578;29;20050;-71
2022/04/22 12:26:20;;;;;;;6.13;2.80;;;;;;;;;;4932487;29;20095;-69
2022/04/22 12:29:05;;;;;;;9.20;3.10;;;;;;;;;;4927955;29;20046;-72
2022/04/22 12:31:31;;;;;;;7.68;2.78;;;;;;;;;;4936311;29;20043;-74
2022/04/22 12:34:02;;;;;;;6.50;3.22;;;;;;;;;;4936268;29;20030;-76
2022/04/22 12:36:30;;;;;;;3.92;2.80;;;;;;;;;;4936841;29;20040;-71
2022/04/22 12:38:56;;;;;;;6.50;3.13;;;;;;;;;;4935859;29;20486;-73
2022/04/22 12:41:25;;;;;;;8.90;3.08;;;;;;;;;;4935657;29;20048;-76
2022/04/22 12:43:55;;;;;;;7.05;3.40;;;;;;;;;;4935782;29;20135;-74
2022/04/22 12:52:09;;;;;;;7.72;3.08;;;;;;;;;;4935534;29;20066;-74
2022/04/22 12:54:37;;;;;;;7.55;3.38;;;;;;;;;;4926808;29;20024;-77
2022/04/22 12:57:05;;;;;;;10.90;3.45;;;;;;;;;;4924957;29;20024;-70
2022/04/22 12:59:43;;;;;;;4.35;2.95;;;;;;;;;;4930266;29;20043;-66
2022/04/22 13:02:11;;;;;;;5.25;3.08;;;;;;;;;;4935258;29;20035;-68
2022/04/22 13:04:55;;;;;;;5.97;3.40;;;;;;;;;;4935272;29;20427;-71
2022/04/22 13:07:22;;;;;;;5.75;3.20;;;;;;;;;;4933562;29;20078;-74
2022/04/22 13:09:48;;;;;;;5.88;3.40;;;;;;;;;;4927007;29;20028;-72
2022/04/22 13:12:15;;;;;;;8.32;3.50;;;;;;;;;;4924617;29;20471;-68
2022/04/22 13:14:41;;;;;;;7.15;3.15;;;;;;;;;;4923081;29;20031;-69
2022/04/22 13:17:20;;;;;;;7.22;3.22;;;;;;;;;;4920752;29;20127;-72
2022/04/22 13:19:46;;;;;;;5.82;3.30;;;;;;;;;;4917506;29;20494;-69
2022/04/22 13:22:12;;;;;;;4.00;3.03;;;;;;;;;;4916172;29;20111;-70
2022/04/22 13:24:40;;;;;;;5.38;3.00;;;;;;;;;;4915980;29;20040;-72
2022/04/22 13:27:07;;;;;;;6.68;3.65;;;;;;;;;;4916415;29;20050;-68
2022/04/22 13:29:33;;;;;;;7.28;3.80;;;;;;;;;;4930072;29;20032;-68
2022/04/22 13:32:00;;;;;;;5.50;3.38;;;;;;;;;;4928318;29;20030;-72
2022/04/22 13:34:26;;;;;;;6.38;3.58;;;;;;;;;;4934015;29;20040;-74
2022/04/22 13:36:52;;;;;;;7.50;3.50;;;;;;;;;;4934381;29;20105;-71
2022/04/22 13:39:19;;;;;;;4.30;3.20;;;;;;;;;;4936966;29;20039;-74
2022/04/22 13:41:45;;;;;;;6.20;3.50;;;;;;;;;;4938924;29;20027;-74
2022/04/22 13:44:12;;;;;;;6.93;3.65;;;;;;;;;;4937739;29;20431;-74
2022/04/22 13:52:28;;;;;;;5.63;3.40;;;;;;;;;;4916314;29;20009;-73
2022/04/22 13:54:55;;;;;;;5.35;3.20;;;;;;;;;;4936648;29;20063;-77
2022/04/22 13:57:21;;;;;;;7.43;3.08;;;;;;;;;;4938563;29;20087;-71
2022/04/22 13:59:47;;;;;;;8.40;3.83;;;;;;;;;;4953318;28;20386;-77
2022/04/22 14:02:12;;;;;;;5.20;3.30;;;;;;;;;;4952567;28;20036;-70
2022/04/22 14:04:38;;;;;;;4.78;3.55;;;;;;;;;;4937729;29;20351;-71
2022/04/22 14:07:08;;;;;;;8.90;3.35;;;;;;;;;;4937758;29;20114;-73
2022/04/22 14:09:35;;;;;;;8.48;3.67;;;;;;;;;;4937643;29;20024;-72
2022/04/22 14:12:02;;;;;;;7.03;3.63;;;;;;;;;;4937776;29;20542;-72
2022/04/22 14:14:28;;;;;;;5.32;3.08;;;;;;;;;;4937433;29;20024;-75
2022/04/22 14:16:54;;;;;;;7.55;3.20;;;;;;;;;;4936122;29;20071;-73
2022/04/22 14:19:22;;;;;;;6.05;3.40;;;;;;;;;;4936417;29;20023;-75
2022/04/22 14:21:48;;;;;;;7.10;3.50;;;;;;;;;;4936139;29;20031;-73
2022/04/22 14:24:14;;;;;;;8.00;3.55;;;;;;;;;;4936448;29;20542;-74
2022/04/22 14:26:40;;;;;;;8.30;3.22;;;;;;;;;;4935952;29;20036;-73
2022/04/22 14:29:06;;;;;;;5.93;3.25;;;;;;;;;;4936429;29;20220;-74
2022/04/22 14:31:32;;;;;;;7.18;3.40;;;;;;;;;;4936117;29;20039;-77
2022/04/22 14:33:57;;;;;;;6.80;3.53;;;;;;;;;;4936181;29;20023;-69
2022/04/22 14:36:23;;;;;;;5.63;3.20;;;;;;;;;;4936870;29;20503;-73
2022/04/22 14:38:49;;;;;;;11.70;4.78;;;;;;;;;;4936711;29;20024;-71
2022/04/22 14:41:15;;;;;;;5.97;3.17;;;;;;;;;;4937506;29;20044;-72
2022/04/22 14:43:42;;;;;;;7.97;3.50;;;;;;;;;;4937306;29;20023;-68
2022/04/22 14:46:07;;;;;;;8.73;3.97;;;;;;;;;;4937151;29;20062;-72
2022/04/22 14:48:34;;;;;;;6.80;3.70;;;;;;;;;;4937132;29;20068;-74
2022/04/22 14:50:59;;;;;;;6.05;3.60;;;;;;;;;;4937088;29;20487;-74
2022/04/22 14:53:26;;;;;;;9.40;4.22;;;;;;;;;;4936980;29;20174;-72
2022/04/22 14:55:52;;;;;;;7.13;3.35;;;;;;;;;;4937338;29;20391;-76
2022/04/22 14:58:18;;;;;;;7.78;3.97;;;;;;;;;;4936410;29;20521;-73
2022/04/22 15:00:44;;;;;;;7.63;3.90;;;;;;;;;;4938257;29;20043;-72
2022/04/22 15:03:12;;;;;;;5.85;3.70;;;;;;;;;;4938313;28;20426;-74
2022/04/22 15:05:38;;;;;;;7.55;3.60;;;;;;;;;;4955649;29;20438;-75
2022/04/22 15:08:04;;;;;;;5.38;3.53;;;;;;;;;;4955248;28;20039;-72
2022/04/22 15:10:30;;;;;;;7.22;3.75;;;;;;;;;;4936863;29;20032;-75
2022/04/22 15:12:56;;;;;;;8.60;4.15;;;;;;;;;;4940821;29;20032;-74
2022/04/22 15:15:22;;;;;;;6.32;3.88;;;;;;;;;;4941715;29;20099;-73
2022/04/22 15:26:02;;;;;;;5.70;3.80;;;;;;;;;;4932737;29;20039;-75
2022/04/22 15:28:28;;;;;;;7.80;3.63;;;;;;;;;;4935366;29;20036;-73
2022/04/22 15:31:03;;;;;;;7.43;3.38;;;;;;;;;;4935630;29;20048;-71
2022/04/22 15:33:29;;;;;;;8.90;3.50;;;;;;;;;;4934174;29;20039;-75
2022/04/22 15:35:55;;;;;;;5.07;3.33;;;;;;;;;;4935881;29;20059;-76
2022/04/22 15:38:22;;;;;;;7.68;3.55;;;;;;;;;;4950621;28;20136;-74
2022/04/22 15:40:48;;;;;;;6.93;3.72;;;;;;;;;;4932011;29;20019;-70
2022/04/22 15:43:15;;;;;;;5.13;3.30;;;;;;;;;;4934617;29;20109;-75
2022/04/22 15:45:41;;;;;;;5.35;3.55;;;;;;;;;;4935681;29;20028;-71
2022/04/22 15:48:07;;;;;;;7.22;3.70;;;;;;;;;;4934778;29;20050;-73
2022/04/22 15:50:34;;;;;;;7.18;3.70;;;;;;;;;;4934740;29;20094;-73
2022/04/22 15:53:05;;;;;;;4.65;3.30;;;;;;;;;;4935652;29;20087;-74
2022/04/22 15:55:31;;;;;;;9.23;3.60;;;;;;;;;;4935542;29;20070;-73
2022/04/22 15:57:58;;;;;;;7.15;3.65;;;;;;;;;;4935443;29;20055;-71
2022/04/22 16:00:25;;;;;;;8.23;4.03;;;;;;;;;;4935046;29;20063;-73
2022/04/22 16:02:51;;;;;;;7.78;3.88;;;;;;;;;;4934670;29;20063;-76
2022/04/22 16:05:17;;;;;;;8.98;4.05;;;;;;;;;;4934791;29;20170;-72
2022/04/22 16:07:44;;;;;;;8.55;3.47;;;;;;;;;;4935244;29;20031;-76
2022/04/22 16:10:10;;;;;;;10.02;4.20;;;;;;;;;;4937344;29;20110;-76
2022/04/22 16:15:22;;;;;;;6.85;3.55;;;;;;;;;;4934839;29;20047;-78